sensor_id;sensor_type;location;lat;lon;timestamp;pressure;altitude;pressure_sealevel;temperature;humidity
27040;BME280;14589;51.578;7.306;2023-08-07T00:01:35;100546.19;;;13.50;100.00
27040;BME280;14589;51.578;7.306;2023-08-07T00:04:05;100551.94;;;13.55;100.00
27040;BME280;14589;51.578;7.306;2023-08-07T00:06:36;100544.63;;;13.56;100.00
27040;BME280;14589;51.578;7.306;2023-08-07T00:09:06;100546.66;;;13.54;100.00
27040;BME280;14589;51.578;7.306;2023-08-07T00:11:37;100548.38;;;13.55;100.00
27040;BME280;14589;51.578;7.306;2023-08-07T00:14:07;100551.44;;;13.60;100.00
27040;BME280;14589;51.578;7.306;2023-08-07T00:16:38;100553.13;;;13.61;100.00
27040;BME280;14589;51.578;7.306;2023-08-07T00:19:08;100552.28;;;13.60;100.00
27040;BME280;14589;51.578;7.306;2023-08-07T00:21:38;100549.72;;;13.59;100.00
27040;BME280;14589;51.578;7.306;2023-08-07T00:24:09;100555.38;;;13.57;100.00
27040;BME280;14589;51.578;7.306;2023-08-07T00:26:39;100553.81;;;13.55;100.00
27040;BME280;14589;51.578;7.306;2023-08-07T00:29:10;100552.13;;;13.54;100.00
27040;BME280;14589;51.578;7.306;2023-08-07T00:31:40;100540.19;;;13.55;100.00
27040;BME280;14589;51.578;7.306;2023-08-07T00:34:11;100557.91;;;13.59;100.00
27040;BME280;14589;51.578;7.306;2023-08-07T00:36:42;100547.69;;;13.53;100.00
27040;BME280;14589;51.578;7.306;2023-08-07T00:39:12;100554.16;;;13.60;100.00
27040;BME280;14589;51.578;7.306;2023-08-07T00:41:44;100562.31;;;13.60;100.00
27040;BME280;14589;51.578;7.306;2023-08-07T00:44:14;100554.50;;;13.57;100.00
27040;BME280;14589;51.578;7.306;2023-08-07T00:46:45;100565.75;;;13.62;100.00
27040;BME280;14589;51.578;7.306;2023-08-07T00:49:16;100571.53;;;13.59;100.00
27040;BME280;14589;51.578;7.306;2023-08-07T00:51:47;100569.00;;;13.57;100.00
27040;BME280;14589;51.578;7.306;2023-08-07T00:54:19;100571.53;;;13.59;100.00
27040;BME280;14589;51.578;7.306;2023-08-07T00:56:50;100572.72;;;13.56;100.00
27040;BME280;14589;51.578;7.306;2023-08-07T00:59:21;100580.06;;;13.56;100.00
27040;BME280;14589;51.578;7.306;2023-08-07T01:01:52;100579.88;;;13.57;100.00
27040;BME280;14589;51.578;7.306;2023-08-07T01:04:23;100580.91;;;13.56;100.00
27040;BME280;14589;51.578;7.306;2023-08-07T01:06:53;100575.78;;;13.53;100.00
27040;BME280;14589;51.578;7.306;2023-08-07T01:09:24;100572.91;;;13.55;100.00
27040;BME280;14589;51.578;7.306;2023-08-07T01:12:15;100581.22;;;13.61;100.00
27040;BME280;14589;51.578;7.306;2023-08-07T01:14:54;100588.56;;;13.61;100.00
27040;BME280;14589;51.578;7.306;2023-08-07T01:17:25;100578.19;;;13.56;100.00
27040;BME280;14589;51.578;7.306;2023-08-07T01:19:56;100606.44;;;13.63;100.00
27040;BME280;14589;51.578;7.306;2023-08-07T01:22:27;100599.28;;;13.54;100.00
27040;BME280;14589;51.578;7.306;2023-08-07T01:24:57;100599.44;;;13.53;100.00
27040;BME280;14589;51.578;7.306;2023-08-07T01:27:41;100598.94;;;13.49;100.00
27040;BME280;14589;51.578;7.306;2023-08-07T01:30:21;100595.38;;;13.49;100.00
27040;BME280;14589;51.578;7.306;2023-08-07T01:33:17;100601.84;;;13.48;100.00
27040;BME280;14589;51.578;7.306;2023-08-07T01:35:56;100596.41;;;13.48;100.00
27040;BME280;14589;51.578;7.306;2023-08-07T01:38:29;100589.06;;;13.40;100.00
27040;BME280;14589;51.578;7.306;2023-08-07T01:41:00;100609.69;;;13.43;100.00
27040;BME280;14589;51.578;7.306;2023-08-07T01:43:32;100599.81;;;13.42;100.00
27040;BME280;14589;51.578;7.306;2023-08-07T01:46:05;100606.78;;;13.44;100.00
27040;BME280;14589;51.578;7.306;2023-08-07T01:48:36;100605.59;;;13.47;100.00
27040;BME280;14589;51.578;7.306;2023-08-07T01:51:07;100604.72;;;13.46;100.00
27040;BME280;14589;51.578;7.306;2023-08-07T01:53:37;100626.19;;;13.49;100.00
27040;BME280;14589;51.578;7.306;2023-08-07T01:56:09;100614.44;;;13.49;100.00
27040;BME280;14589;51.578;7.306;2023-08-07T01:58:39;100610.72;;;13.50;100.00
27040;BME280;14589;51.578;7.306;2023-08-07T02:01:10;100604.22;;;13.43;100.00
27040;BME280;14589;51.578;7.306;2023-08-07T02:03:40;100603.53;;;13.41;100.00
27040;BME280;14589;51.578;7.306;2023-08-07T02:06:10;100599.09;;;13.40;100.00
27040;BME280;14589;51.578;7.306;2023-08-07T02:08:41;100610.00;;;13.40;100.00
27040;BME280;14589;51.578;7.306;2023-08-07T02:11:11;100618.19;;;13.40;100.00
27040;BME280;14589;51.578;7.306;2023-08-07T02:13:41;100612.22;;;13.36;100.00
27040;BME280;14589;51.578;7.306;2023-08-07T02:16:12;100621.25;;;13.36;100.00
27040;BME280;14589;51.578;7.306;2023-08-07T02:18:42;100622.59;;;13.41;100.00
27040;BME280;14589;51.578;7.306;2023-08-07T02:21:13;100613.25;;;13.35;100.00
27040;BME280;14589;51.578;7.306;2023-08-07T02:23:43;100618.69;;;13.35;100.00
27040;BME280;14589;51.578;7.306;2023-08-07T02:26:13;100626.69;;;13.36;100.00
27040;BME280;14589;51.578;7.306;2023-08-07T02:28:44;100626.00;;;13.34;100.00
27040;BME280;14589;51.578;7.306;2023-08-07T02:31:14;100618.69;;;13.35;100.00
27040;BME280;14589;51.578;7.306;2023-08-07T02:33:45;100625.16;;;13.34;100.00
27040;BME280;14589;51.578;7.306;2023-08-07T02:36:15;100633.31;;;13.34;100.00
27040;BME280;14589;51.578;7.306;2023-08-07T02:38:45;100621.94;;;13.30;100.00
27040;BME280;14589;51.578;7.306;2023-08-07T02:41:16;100616.13;;;13.33;100.00
27040;BME280;14589;51.578;7.306;2023-08-07T02:43:47;100626.69;;;13.36;100.00
27040;BME280;14589;51.578;7.306;2023-08-07T02:46:17;100624.13;;;13.35;100.00
27040;BME280;14589;51.578;7.306;2023-08-07T02:48:48;100625.34;;;13.32;100.00
27040;BME280;14589;51.578;7.306;2023-08-07T02:51:18;100617.50;;;13.29;100.00
27040;BME280;14589;51.578;7.306;2023-08-07T02:53:48;100618.84;;;13.33;100.00
27040;BME280;14589;51.578;7.306;2023-08-07T02:56:19;100635.88;;;13.35;100.00
27040;BME280;14589;51.578;7.306;2023-08-07T02:58:49;100621.25;;;13.36;100.00
27040;BME280;14589;51.578;7.306;2023-08-07T03:01:20;100620.41;;;13.36;100.00
27040;BME280;14589;51.578;7.306;2023-08-07T03:03:51;100628.94;;;13.33;100.00
27040;BME280;14589;51.578;7.306;2023-08-07T03:06:22;100622.63;;;13.32;100.00
27040;BME280;14589;51.578;7.306;2023-08-07T03:08:52;100619.53;;;13.27;100.00
27040;BME280;14589;51.578;7.306;2023-08-07T03:11:22;100622.44;;;13.34;100.00
27040;BME280;14589;51.578;7.306;2023-08-07T03:13:53;100625.69;;;13.38;100.00
27040;BME280;14589;51.578;7.306;2023-08-07T03:16:23;100631.13;;;13.38;100.00
27040;BME280;14589;51.578;7.306;2023-08-07T03:18:54;100626.19;;;13.33;100.00
27040;BME280;14589;51.578;7.306;2023-08-07T03:21:24;100634.88;;;13.36;100.00
27040;BME280;14589;51.578;7.306;2023-08-07T03:23:54;100604.41;;;13.33;100.00
27040;BME280;14589;51.578;7.306;2023-08-07T03:26:25;100624.31;;;13.33;100.00
27040;BME280;14589;51.578;7.306;2023-08-07T03:28:55;100634.53;;;13.31;100.00
27040;BME280;14589;51.578;7.306;2023-08-07T03:31:26;100628.56;;;13.28;100.00
27040;BME280;14589;51.578;7.306;2023-08-07T03:33:57;100627.69;;;13.27;100.00
27040;BME280;14589;51.578;7.306;2023-08-07T03:36:28;100623.97;;;13.28;100.00
27040;BME280;14589;51.578;7.306;2023-08-07T03:38:59;100646.59;;;13.29;100.00
27040;BME280;14589;51.578;7.306;2023-08-07T03:41:29;100637.06;;;13.25;100.00
27040;BME280;14589;51.578;7.306;2023-08-07T03:44:01;100643.38;;;13.25;100.00
27040;BME280;14589;51.578;7.306;2023-08-07T03:46:32;100646.59;;;13.29;100.00
27040;BME280;14589;51.578;7.306;2023-08-07T03:49:03;100629.41;;;13.28;100.00
27040;BME280;14589;51.578;7.306;2023-08-07T03:51:34;100645.91;;;13.27;100.00
27040;BME280;14589;51.578;7.306;2023-08-07T03:54:04;100637.75;;;13.27;100.00
27040;BME280;14589;51.578;7.306;2023-08-07T03:56:35;100655.13;;;13.26;100.00
27040;BME280;14589;51.578;7.306;2023-08-07T03:59:07;100660.06;;;13.30;100.00
27040;BME280;14589;51.578;7.306;2023-08-07T04:01:38;100649.31;;;13.29;100.00
27040;BME280;14589;51.578;7.306;2023-08-07T04:04:09;100648.63;;;13.27;100.00
27040;BME280;14589;51.578;7.306;2023-08-07T04:06:39;100653.91;;;13.28;100.00
27040;BME280;14589;51.578;7.306;2023-08-07T04:09:09;100655.13;;;13.26;100.00
27040;BME280;14589;51.578;7.306;2023-08-07T04:11:40;100644.72;;;13.29;100.00
27040;BME280;14589;51.578;7.306;2023-08-07T04:14:11;100646.09;;;13.25;100.00
27040;BME280;14589;51.578;7.306;2023-08-07T04:16:41;100653.91;;;13.28;100.00
27040;BME280;14589;51.578;7.306;2023-08-07T04:19:12;100658.72;;;13.26;100.00
27040;BME280;14589;51.578;7.306;2023-08-07T04:21:42;100654.63;;;13.30;100.00
27040;BME280;14589;51.578;7.306;2023-08-07T04:24:13;100664.16;;;13.26;100.00
27040;BME280;14589;51.578;7.306;2023-08-07T04:26:43;100655.97;;;13.18;100.00
27040;BME280;14589;51.578;7.306;2023-08-07T04:29:14;100661.06;;;13.21;100.00
27040;BME280;14589;51.578;7.306;2023-08-07T04:31:45;100665.66;;;13.21;100.00
27040;BME280;14589;51.578;7.306;2023-08-07T04:34:15;100665.47;;;13.22;100.00
27040;BME280;14589;51.578;7.306;2023-08-07T04:36:45;100659.69;;;13.17;100.00
27040;BME280;14589;51.578;7.306;2023-08-07T04:39:16;100657.66;;;13.19;100.00
27040;BME280;14589;51.578;7.306;2023-08-07T04:41:46;100667.53;;;13.20;100.00
27040;BME280;14589;51.578;7.306;2023-08-07T04:44:17;100663.28;;;13.18;100.00
27040;BME280;14589;51.578;7.306;2023-08-07T04:46:48;100670.44;;;13.19;100.00
27040;BME280;14589;51.578;7.306;2023-08-07T04:49:18;100656.13;;;13.17;100.00
27040;BME280;14589;51.578;7.306;2023-08-07T04:51:49;100661.41;;;13.18;100.00
27040;BME280;14589;51.578;7.306;2023-08-07T04:54:19;100667.34;;;13.14;100.00
27040;BME280;14589;51.578;7.306;2023-08-07T04:56:49;100645.00;;;13.02;100.00
27040;BME280;14589;51.578;7.306;2023-08-07T04:59:20;100648.75;;;13.01;100.00
27040;BME280;14589;51.578;7.306;2023-08-07T05:01:50;100659.34;;;13.12;100.00
27040;BME280;14589;51.578;7.306;2023-08-07T05:04:20;100670.94;;;13.14;100.00
27040;BME280;14589;51.578;7.306;2023-08-07T05:06:51;100675.34;;;13.15;100.00
27040;BME280;14589;51.578;7.306;2023-08-07T05:09:21;100668.22;;;13.14;100.00
27040;BME280;14589;51.578;7.306;2023-08-07T05:11:52;100674.69;;;13.13;100.00
27040;BME280;14589;51.578;7.306;2023-08-07T05:14:23;100671.09;;;13.13;100.00
27040;BME280;14589;51.578;7.306;2023-08-07T05:16:53;100664.78;;;13.12;100.00
27040;BME280;14589;51.578;7.306;2023-08-07T05:19:23;100671.75;;;13.15;100.00
27040;BME280;14589;51.578;7.306;2023-08-07T05:21:54;100665.78;;;13.11;100.00
27040;BME280;14589;51.578;7.306;2023-08-07T05:24:24;100670.38;;;13.11;100.00
27040;BME280;14589;51.578;7.306;2023-08-07T05:26:55;100666.78;;;13.10;100.00
27040;BME280;14589;51.578;7.306;2023-08-07T05:29:25;100679.53;;;13.10;100.00
27040;BME280;14589;51.578;7.306;2023-08-07T05:31:56;100677.84;;;13.09;100.00
27040;BME280;14589;51.578;7.306;2023-08-07T05:34:26;100682.28;;;13.10;100.00
27040;BME280;14589;51.578;7.306;2023-08-07T05:36:56;100691.28;;;13.10;100.00
27040;BME280;14589;51.578;7.306;2023-08-07T05:39:27;100691.28;;;13.10;100.00
27040;BME280;14589;51.578;7.306;2023-08-07T05:41:57;100690.28;;;13.11;100.00
27040;BME280;14589;51.578;7.306;2023-08-07T05:44:28;100689.31;;;13.12;100.00
27040;BME280;14589;51.578;7.306;2023-08-07T05:46:59;100687.91;;;13.08;100.00
27040;BME280;14589;51.578;7.306;2023-08-07T05:49:29;100687.44;;;13.13;100.00
27040;BME280;14589;51.578;7.306;2023-08-07T05:52:00;100691.88;;;13.14;100.00
27040;BME280;14589;51.578;7.306;2023-08-07T05:54:30;100679.91;;;13.07;100.00
27040;BME280;14589;51.578;7.306;2023-08-07T05:57:01;100702.25;;;13.18;100.00
27040;BME280;14589;51.578;7.306;2023-08-07T05:59:31;100691.53;;;13.17;100.00
27040;BME280;14589;51.578;7.306;2023-08-07T06:02:02;100701.41;;;13.18;100.00
27040;BME280;14589;51.578;7.306;2023-08-07T06:04:33;100694.25;;;13.17;100.00
27040;BME280;14589;51.578;7.306;2023-08-07T06:07:04;100703.78;;;13.21;100.00
27040;BME280;14589;51.578;7.306;2023-08-07T06:09:35;100716.56;;;13.20;100.00
27040;BME280;14589;51.578;7.306;2023-08-07T06:12:06;100711.78;;;13.14;100.00
27040;BME280;14589;51.578;7.306;2023-08-07T06:14:37;100704.13;;;13.18;100.00
27040;BME280;14589;51.578;7.306;2023-08-07T06:17:08;100719.44;;;13.19;100.00
27040;BME280;14589;51.578;7.306;2023-08-07T06:19:38;100711.78;;;13.22;100.00
27040;BME280;14589;51.578;7.306;2023-08-07T06:22:08;100715.88;;;13.18;100.00
27040;BME280;14589;51.578;7.306;2023-08-07T06:24:39;100707.69;;;13.18;100.00
27040;BME280;14589;51.578;7.306;2023-08-07T06:27:09;100726.78;;;13.26;100.00
27040;BME280;14589;51.578;7.306;2023-08-07T06:29:40;100719.44;;;13.27;100.00
27040;BME280;14589;51.578;7.306;2023-08-07T06:32:10;100720.31;;;13.27;100.00
27040;BME280;14589;51.578;7.306;2023-08-07T06:34:41;100724.25;;;13.33;100.00
27040;BME280;14589;51.578;7.306;2023-08-07T06:37:12;100730.53;;;13.33;100.00
27040;BME280;14589;51.578;7.306;2023-08-07T06:39:43;100727.13;;;13.31;100.00
27040;BME280;14589;51.578;7.306;2023-08-07T06:42:13;100733.59;;;13.30;100.00
27040;BME280;14589;51.578;7.306;2023-08-07T06:44:47;100739.59;;;13.42;100.00
27040;BME280;14589;51.578;7.306;2023-08-07T06:47:17;100738.56;;;13.43;100.00
27040;BME280;14589;51.578;7.306;2023-08-07T06:49:47;100737.75;;;13.51;100.00
27040;BME280;14589;51.578;7.306;2023-08-07T06:52:18;100743.00;;;13.52;100.00
27040;BME280;14589;51.578;7.306;2023-08-07T06:54:48;100754.09;;;13.67;100.00
27040;BME280;14589;51.578;7.306;2023-08-07T06:57:19;100741.84;;;13.63;100.00
27040;BME280;14589;51.578;7.306;2023-08-07T06:59:49;100767.41;;;13.70;100.00
27040;BME280;14589;51.578;7.306;2023-08-07T07:02:19;100759.38;;;13.76;100.00
27040;BME280;14589;51.578;7.306;2023-08-07T07:04:50;100765.00;;;13.83;100.00
27040;BME280;14589;51.578;7.306;2023-08-07T07:07:20;100759.56;;;13.75;100.00
27040;BME280;14589;51.578;7.306;2023-08-07T07:09:50;100777.63;;;13.84;100.00
27040;BME280;14589;51.578;7.306;2023-08-07T07:12:21;100777.78;;;13.83;100.00
27040;BME280;14589;51.578;7.306;2023-08-07T07:14:51;100767.41;;;13.86;100.00
27040;BME280;14589;51.578;7.306;2023-08-07T07:17:21;100775.25;;;13.89;100.00
27040;BME280;14589;51.578;7.306;2023-08-07T07:19:52;100788.00;;;13.89;100.00
27040;BME280;14589;51.578;7.306;2023-08-07T07:22:22;100782.06;;;13.93;100.00
27040;BME280;14589;51.578;7.306;2023-08-07T07:24:53;100785.63;;;13.86;100.00
27040;BME280;14589;51.578;7.306;2023-08-07T07:27:23;100787.84;;;13.90;100.00
27040;BME280;14589;51.578;7.306;2023-08-07T07:29:56;100785.28;;;13.89;100.00
27040;BME280;14589;51.578;7.306;2023-08-07T07:32:26;100791.94;;;13.86;100.00
27040;BME280;14589;51.578;7.306;2023-08-07T07:34:56;100804.03;;;13.84;100.00
27040;BME280;14589;51.578;7.306;2023-08-07T07:37:27;100808.63;;;13.83;100.00
27040;BME280;14589;51.578;7.306;2023-08-07T07:39:57;100800.28;;;13.85;100.00
27040;BME280;14589;51.578;7.306;2023-08-07T07:42:28;100812.03;;;13.77;100.00
27040;BME280;14589;51.578;7.306;2023-08-07T07:44:58;100805.56;;;13.78;100.00
27040;BME280;14589;51.578;7.306;2023-08-07T07:47:29;100816.47;;;13.78;100.00
27040;BME280;14589;51.578;7.306;2023-08-07T07:50:07;100818.16;;;13.79;100.00
27040;BME280;14589;51.578;7.306;2023-08-07T07:52:38;100817.84;;;13.82;100.00
27040;BME280;14589;51.578;7.306;2023-08-07T07:55:09;100818.50;;;13.84;100.00
27040;BME280;14589;51.578;7.306;2023-08-07T07:57:40;100826.53;;;13.86;100.00
27040;BME280;14589;51.578;7.306;2023-08-07T08:00:11;100821.78;;;13.88;100.00
27040;BME280;14589;51.578;7.306;2023-08-07T08:02:43;100831.63;;;13.89;100.00
27040;BME280;14589;51.578;7.306;2023-08-07T08:05:13;100830.81;;;13.96;100.00
27040;BME280;14589;51.578;7.306;2023-08-07T08:07:45;100843.94;;;14.09;100.00
27040;BME280;14589;51.578;7.306;2023-08-07T08:10:16;100841.56;;;14.06;100.00
27040;BME280;14589;51.578;7.306;2023-08-07T08:12:46;100842.59;;;14.05;100.00
27040;BME280;14589;51.578;7.306;2023-08-07T08:15:17;100842.41;;;14.14;100.00
27040;BME280;14589;51.578;7.306;2023-08-07T08:17:48;100842.25;;;14.16;100.00
27040;BME280;14589;51.578;7.306;2023-08-07T08:20:18;100865.97;;;14.24;100.00
27040;BME280;14589;51.578;7.306;2023-08-07T08:22:49;100863.25;;;14.40;100.00
27040;BME280;14589;51.578;7.306;2023-08-07T08:25:19;100889.53;;;14.41;100.00
27040;BME280;14589;51.578;7.306;2023-08-07T08:27:50;100888.00;;;14.46;100.00
27040;BME280;14589;51.578;7.306;2023-08-07T08:30:21;100888.69;;;14.48;100.00
27040;BME280;14589;51.578;7.306;2023-08-07T08:32:51;100877.09;;;14.54;100.00
27040;BME280;14589;51.578;7.306;2023-08-07T08:35:22;100890.53;;;14.64;100.00
27040;BME280;14589;51.578;7.306;2023-08-07T08:37:52;100897.03;;;14.55;100.00
27040;BME280;14589;51.578;7.306;2023-08-07T08:40:24;100889.88;;;14.38;100.00
27040;BME280;14589;51.578;7.306;2023-08-07T08:42:55;100888.19;;;14.61;100.00
27040;BME280;14589;51.578;7.306;2023-08-07T08:45:29;100898.06;;;14.62;100.00
27040;BME280;14589;51.578;7.306;2023-08-07T08:48:03;100895.50;;;14.61;100.00
27040;BME280;14589;51.578;7.306;2023-08-07T08:50:34;100902.31;;;14.56;100.00
27040;BME280;14589;51.578;7.306;2023-08-07T08:53:06;100899.59;;;14.56;100.00
27040;BME280;14589;51.578;7.306;2023-08-07T08:55:39;100915.97;;;14.56;100.00
27040;BME280;14589;51.578;7.306;2023-08-07T08:58:14;100908.78;;;14.64;100.00
27040;BME280;14589;51.578;7.306;2023-08-07T09:00:45;100921.28;;;14.74;100.00
27040;BME280;14589;51.578;7.306;2023-08-07T09:03:18;100919.91;;;14.78;100.00
27040;BME280;14589;51.578;7.306;2023-08-07T09:05:49;100924.66;;;14.92;100.00
27040;BME280;14589;51.578;7.306;2023-08-07T09:08:22;100933.00;;;15.15;100.00
27040;BME280;14589;51.578;7.306;2023-08-07T09:10:56;100937.97;;;15.12;100.00
27040;BME280;14589;51.578;7.306;2023-08-07T09:13:28;100938.47;;;15.23;100.00
27040;BME280;14589;51.578;7.306;2023-08-07T09:15:59;100930.09;;;15.09;100.00
27040;BME280;14589;51.578;7.306;2023-08-07T09:18:30;100921.38;;;15.21;100.00
27040;BME280;14589;51.578;7.306;2023-08-07T09:21:01;100919.91;;;15.50;100.00
27040;BME280;14589;51.578;7.306;2023-08-07T09:23:32;100923.88;;;15.39;100.00
27040;BME280;14589;51.578;7.306;2023-08-07T09:26:03;100926.38;;;15.73;100.00
27040;BME280;14589;51.578;7.306;2023-08-07T09:28:34;100933.31;;;15.84;100.00
27040;BME280;14589;51.578;7.306;2023-08-07T09:31:08;100927.69;;;15.85;100.00
27040;BME280;14589;51.578;7.306;2023-08-07T09:33:40;100927.22;;;16.35;100.00
27040;BME280;14589;51.578;7.306;2023-08-07T09:36:11;100937.56;;;16.48;100.00
27040;BME280;14589;51.578;7.306;2023-08-07T09:38:41;100939.72;;;16.61;100.00
27040;BME280;14589;51.578;7.306;2023-08-07T09:41:12;100935.72;;;16.71;100.00
27040;BME280;14589;51.578;7.306;2023-08-07T09:43:43;100942.00;;;16.49;100.00
27040;BME280;14589;51.578;7.306;2023-08-07T09:46:13;100947.28;;;16.50;100.00
27040;BME280;14589;51.578;7.306;2023-08-07T09:48:44;100950.19;;;16.80;100.00
27040;BME280;14589;51.578;7.306;2023-08-07T09:51:14;100949.31;;;17.17;100.00
27040;BME280;14589;51.578;7.306;2023-08-07T09:53:47;100949.81;;;17.35;100.00
27040;BME280;14589;51.578;7.306;2023-08-07T09:56:17;100949.66;;;17.36;97.22
27040;BME280;14589;51.578;7.306;2023-08-07T09:58:48;100942.53;;;17.65;98.52
27040;BME280;14589;51.578;7.306;2023-08-07T10:01:19;100940.00;;;17.99;96.99
27040;BME280;14589;51.578;7.306;2023-08-07T10:03:49;100940.19;;;18.12;95.77
27040;BME280;14589;51.578;7.306;2023-08-07T10:06:20;100951.66;;;17.72;92.60
27040;BME280;14589;51.578;7.306;2023-08-07T10:08:51;100956.13;;;17.73;94.33
27040;BME280;14589;51.578;7.306;2023-08-07T10:11:23;100956.00;;;17.52;95.36
27040;BME280;14589;51.578;7.306;2023-08-07T10:13:53;100969.72;;;17.52;98.19
27040;BME280;14589;51.578;7.306;2023-08-07T10:16:28;100951.81;;;16.89;97.45
27040;BME280;14589;51.578;7.306;2023-08-07T10:18:59;100983.28;;;16.93;100.00
27040;BME280;14589;51.578;7.306;2023-08-07T10:21:29;100975.59;;;17.11;100.00
27040;BME280;14589;51.578;7.306;2023-08-07T10:24:07;100982.16;;;17.25;96.37
27040;BME280;14589;51.578;7.306;2023-08-07T10:26:42;100969.75;;;17.14;99.25
27040;BME280;14589;51.578;7.306;2023-08-07T10:29:17;100969.03;;;17.50;96.74
27040;BME280;14589;51.578;7.306;2023-08-07T10:31:49;100988.84;;;17.74;94.41
27040;BME280;14589;51.578;7.306;2023-08-07T10:34:21;100981.19;;;17.85;96.96
27040;BME280;14589;51.578;7.306;2023-08-07T10:36:52;100988.94;;;18.46;91.77
27040;BME280;14589;51.578;7.306;2023-08-07T10:39:22;100986.22;;;18.82;89.57
27040;BME280;14589;51.578;7.306;2023-08-07T10:41:54;100960.31;;;19.19;85.95
27040;BME280;14589;51.578;7.306;2023-08-07T10:44:27;100994.25;;;19.54;86.85
27040;BME280;14589;51.578;7.306;2023-08-07T10:47:00;100984.28;;;19.88;81.07
27040;BME280;14589;51.578;7.306;2023-08-07T10:49:38;100985.50;;;20.19;78.66
27040;BME280;14589;51.578;7.306;2023-08-07T10:52:14;100979.06;;;20.40;76.23
27040;BME280;14589;51.578;7.306;2023-08-07T10:54:50;100973.38;;;20.48;76.22
27040;BME280;14589;51.578;7.306;2023-08-07T10:57:21;100980.63;;;20.76;74.96
27040;BME280;14589;51.578;7.306;2023-08-07T11:02:29;100973.06;;;21.11;69.85
27040;BME280;14589;51.578;7.306;2023-08-07T11:05:00;100995.97;;;20.98;70.49
27040;BME280;14589;51.578;7.306;2023-08-07T11:07:31;100994.88;;;20.99;73.41
27040;BME280;14589;51.578;7.306;2023-08-07T11:10:01;100998.94;;;21.29;70.15
27040;BME280;14589;51.578;7.306;2023-08-07T11:12:32;100989.84;;;21.16;69.51
27040;BME280;14589;51.578;7.306;2023-08-07T11:15:02;100991.13;;;21.33;66.39
27040;BME280;14589;51.578;7.306;2023-08-07T11:17:33;100988.34;;;21.66;66.53
27040;BME280;14589;51.578;7.306;2023-08-07T11:20:04;100981.50;;;21.75;70.13
27040;BME280;14589;51.578;7.306;2023-08-07T11:22:34;100989.31;;;21.98;61.56
27040;BME280;14589;51.578;7.306;2023-08-07T11:25:05;100973.31;;;22.19;62.83
27040;BME280;14589;51.578;7.306;2023-08-07T11:27:40;100981.03;;;22.04;58.79
27040;BME280;14589;51.578;7.306;2023-08-07T11:30:11;101002.03;;;22.18;61.61
27040;BME280;14589;51.578;7.306;2023-08-07T11:32:42;100985.72;;;21.91;60.21
27040;BME280;14589;51.578;7.306;2023-08-07T11:35:13;100986.50;;;22.17;58.22
27040;BME280;14589;51.578;7.306;2023-08-07T11:37:47;100978.94;;;21.80;61.03
27040;BME280;14589;51.578;7.306;2023-08-07T11:40:18;100993.19;;;21.84;59.09
27040;BME280;14589;51.578;7.306;2023-08-07T11:42:48;100998.50;;;21.13;61.49
27040;BME280;14589;51.578;7.306;2023-08-07T11:45:18;100999.81;;;21.30;61.14
27040;BME280;14589;51.578;7.306;2023-08-07T11:47:49;101006.63;;;21.54;60.88
27040;BME280;14589;51.578;7.306;2023-08-07T11:50:19;101009.38;;;21.34;63.42
27040;BME280;14589;51.578;7.306;2023-08-07T11:52:51;101003.00;;;21.53;63.28
27040;BME280;14589;51.578;7.306;2023-08-07T11:55:23;100993.00;;;22.36;59.18
27040;BME280;14589;51.578;7.306;2023-08-07T11:57:53;100993.38;;;21.82;55.78
27040;BME280;14589;51.578;7.306;2023-08-07T12:00:28;101001.16;;;22.69;54.65
27040;BME280;14589;51.578;7.306;2023-08-07T12:02:59;101003.84;;;22.38;52.89
27040;BME280;14589;51.578;7.306;2023-08-07T12:05:38;101010.09;;;22.20;55.77
27040;BME280;14589;51.578;7.306;2023-08-07T12:08:08;100999.72;;;22.98;52.69
27040;BME280;14589;51.578;7.306;2023-08-07T12:10:39;101006.22;;;23.85;53.20
27040;BME280;14589;51.578;7.306;2023-08-07T12:13:12;101007.53;;;22.76;51.07
27040;BME280;14589;51.578;7.306;2023-08-07T12:15:42;100999.88;;;22.65;54.72
27040;BME280;14589;51.578;7.306;2023-08-07T12:18:12;101010.16;;;23.21;51.57
27040;BME280;14589;51.578;7.306;2023-08-07T12:20:43;101015.31;;;22.86;51.47
27040;BME280;14589;51.578;7.306;2023-08-07T12:23:14;101024.81;;;22.96;53.36
27040;BME280;14589;51.578;7.306;2023-08-07T12:25:48;101011.06;;;22.45;52.87
27040;BME280;14589;51.578;7.306;2023-08-07T12:28:19;101017.56;;;22.06;53.78
27040;BME280;14589;51.578;7.306;2023-08-07T12:30:51;101032.47;;;21.99;53.10
27040;BME280;14589;51.578;7.306;2023-08-07T12:33:21;101023.13;;;22.00;56.30
27040;BME280;14589;51.578;7.306;2023-08-07T12:35:52;101023.56;;;22.03;54.17
27040;BME280;14589;51.578;7.306;2023-08-07T12:38:23;101039.03;;;22.62;51.90
27040;BME280;14589;51.578;7.306;2023-08-07T12:40:54;101030.75;;;21.91;51.82
27040;BME280;14589;51.578;7.306;2023-08-07T12:43:25;101030.34;;;22.01;52.21
27040;BME280;14589;51.578;7.306;2023-08-07T12:45:55;101031.97;;;22.79;49.59
27040;BME280;14589;51.578;7.306;2023-08-07T12:48:26;101032.56;;;22.37;52.64
27040;BME280;14589;51.578;7.306;2023-08-07T12:50:58;101024.75;;;22.21;52.16
27040;BME280;14589;51.578;7.306;2023-08-07T12:53:28;101013.16;;;22.94;50.25
27040;BME280;14589;51.578;7.306;2023-08-07T12:55:59;101037.03;;;22.89;50.75
27040;BME280;14589;51.578;7.306;2023-08-07T12:58:30;101042.78;;;22.87;51.94
27040;BME280;14589;51.578;7.306;2023-08-07T13:01:00;101027.69;;;23.89;48.28
27040;BME280;14589;51.578;7.306;2023-08-07T13:03:30;101014.69;;;23.47;49.07
27040;BME280;14589;51.578;7.306;2023-08-07T13:06:01;101018.34;;;23.65;50.04